Airfield :
LOGIN :

Register | Disclaimer

   EN    FR    IT 

 










Legend :    VFR   Marginal VFR   IFR   Intensive IFR   Very Intensive IFR
Visi :
Ceiling :
>= 8 km
>= 3000ft
5 to 8 km
1000 to 3000 ft
1500m to 5 km
500 to 1000 ft
800 to 1500m
200 to 500 ft
< 800m
< 200 ft
Symbols :   Thunderstorms  Fog  Heavy snow  Heavy precipitations  Wind > 20 kt
SIGMETs :     Misc.  Thunderstorms  Icing  Turbulence  Mountain Waves  Volcanic Ashes






- Airport Elevation : 72 ft
- IATA code : UDE


EHVK - Volkel Airbase

CURRENT METAR :
  • 221955Z AUTO 10008KT 070V140 9999 OVC300 05/03 Q1002 BLU

EXPIRED METARs :
  • 221925Z AUTO 11008KT 090V150 9999 OVC320 05/03 Q1002 BLU
  • 221855Z AUTO 10008KT 080V140 9999 OVC280 05/04 Q1003 BLU
  • 221825Z AUTO 11009KT 080V150 9999 BKN310 05/04 Q1003 BLU
  • 221755Z AUTO 10008KT 070V140 9999 FEW270 05/04 Q1003 BLU
  • 221725Z AUTO 10009KT 080V150 9999 OVC270 06/04 Q1003 BLU

TAF TAF EHVK
Valid from the 22 at 18:00 until the 23 at 06:00 UTC


221743Z 2218/2306 11009KT CAVOK



MET'MAP, your aeronautical weather chart ! - Copyright ORBIFLY December 2007 - Disclaimer

ORBIFLY MET'MAP TEAM :

Programming & Development : Alexandra Zaïnal
Concept & Development : Baudouin d'Aumeries
Co-Development & Prog : Marc-Olivier Méhu
Technical & hardware support : Manuel Goepfert

Contact : metmap@orbifly.com




SOURCES & CREDITS :

   NOAA